Flight Track Log - Related Links

Times and Time Zones

All times are in EST time to prevent confusion due to time zone crossing. See the UAL3595 flight status page for this flight to view local times or setup timezone preferences in your user account.

Time Position Orientation Groundspeed Altitude Reporting Facility
EST Latitude Longitude Course Direction KTS MPH feet Rate Location/Type
Fri 11:32:25 AM 42.9333 -78.7333 180° South 133 153 1,400  Level Buffalo TRACON
Fri 11:33:31 AM 42.9000 -78.7667 216° Southwest 137 158 2,900 1,550 Climbing Buffalo TRACON
Fri 11:34:25 AM 42.8667 -78.7667 180° South 170 196 4,500 1,670 Climbing Buffalo TRACON
Fri 11:35:08 AM 42.8306 -78.7644 177° South 165 190 5,600 1,429 Climbing Cleveland Center
Fri 11:36:10 AM 42.7808 -78.7539 171° South 171 197 7,000 1,355 Climbing Cleveland Center
Fri 11:37:00 AM 42.5316 -78.5929 180° South  Level Estimated
Fri 11:37:12 AM 42.7253 -78.7436 172° South 193 222 8,400  Level Cleveland Center
Fri 11:38:14 AM 42.6678 -78.7319 172° South 213 245 9,500 1,016 Climbing Cleveland Center
Fri 11:39:16 AM 42.6056 -78.7197 172° South 224 258 10,500 1,073 Climbing Cleveland Center
Fri 11:40:17 AM 42.5419 -78.7069 172° South 233 268 11,700 1,171 Climbing Cleveland Center
Fri 11:41:19 AM 42.4781 -78.6928 171° South 234 269 12,900 1,065 Climbing Cleveland Center
Fri 11:42:21 AM 42.4131 -78.6825 173° South 235 270 13,900 1,258 Climbing Cleveland Center
Fri 11:43:23 AM 42.3322 -78.6653 171° South 242 278 15,500 1,306 Climbing Cleveland Center
Fri 11:44:25 AM 42.2661 -78.6525 172° South 241 277 16,600 726 Climbing Cleveland Center
Fri 11:45:27 AM 42.1969 -78.6414 173° South 248 285 17,000 194 Climbing Cleveland Center
Fri 11:46:29 AM 42.1189 -78.6264 172° South 271 312 17,000  Level Cleveland Center
Fri 11:47:31 AM 42.0375 -78.6272 180° South 289 333 17,000  Level Cleveland Center
Fri 11:48:33 AM 41.9422 -78.6244 179° South 288 331 17,000  Level Cleveland Center
Fri 11:49:35 AM 41.8625 -78.6222 179° South 287 330 17,000  Level Cleveland Center
Fri 11:50:37 AM 41.7839 -78.6200 179° South 285 328 17,000  Level Cleveland Center
Fri 11:51:39 AM 41.7103 -78.5658 151° Southeast 304 350 17,000  Level Cleveland Center
Fri 11:52:41 AM 41.6347 -78.5092 151° Southeast 310 357 17,000 -244 Level Cleveland Center
Fri 11:53:42 AM 41.5600 -78.4553 152° Southeast 306 352 16,500 -585 Descending Cleveland Center
Fri 11:54:44 AM 41.4811 -78.3986 152° Southeast 314 361 15,800 -726 Descending Cleveland Center
Fri 11:55:46 AM 41.3844 -78.3275 151° Southeast 327 376 15,000 -387 Descending Cleveland Center
Fri 11:56:48 AM 41.3133 -78.2772 152° Southeast 328 377 15,000 46 Level Cleveland Center
Fri 11:57:57 AM 41.2217 -78.2111 152° Southeast 330 380 15,100  Climbing New Center
Fri 11:58:57 AM 41.1456 -78.1586 153° Southeast 325 374 15,000 -103 Descending New Center
Fri 11:59:54 AM 41.0769 -78.1075 151° Southeast 305 351 14,900 -50 Descending Cleveland Center
Fri 12:00:56 PM 41.0022 -78.0544 152° Southeast 304 350 14,900  Level Cleveland Center
Fri 12:01:58 PM 40.9275 -78.0017 152° Southeast 305 351 14,900  Level Cleveland Center
Fri 12:03:00 PM 40.8369 -77.9436 154° Southeast 302 348 14,900  Level Cleveland Center
Fri 12:04:02 PM 40.7611 -77.8964 155° Southeast 301 346 14,900  Level Cleveland Center
Fri 12:04:57 PM 40.6972 -77.8556 154° Southeast 309 356 14,900  Level New Center
Fri 12:05:57 PM 40.6228 -77.8094 155° Southeast 309 356 14,900  Level New Center
Fri 12:06:56 PM 40.5486 -77.7608 154° Southeast 303 349 14,900  Level New Center
Fri 12:07:57 PM 40.4719 -77.7150 156° South 303 349 14,900  Level New Center
Fri 12:08:57 PM 40.3997 -77.6667 153° Southeast 303 349 14,900 50 Level New Center
Fri 12:09:57 PM 40.3175 -77.6150 154° Southeast 303 349 15,000 50 Climbing New Center
Fri 12:10:57 PM 40.2508 -77.5758 156° South 303 349 15,000 -400 Level New Center
Fri 12:11:57 PM 40.1703 -77.5244 154° Southeast 292 336 14,200 -950 Descending New Center
Fri 12:12:57 PM 40.0936 -77.4789 156° South 297 342 13,100 -969 Descending New Center
Fri 12:15:40 PM 39.9000 -77.3500 186° South 306 352 10,600 -954 Descending Potomac TRACON
Fri 12:17:00 PM 39.8086 -77.2936 155° Southeast  Level FlightAware
Fri 12:17:40 PM 39.7500 -77.4000 155° Southeast 249 287 8,600  Level Potomac TRACON
Fri 12:18:41 PM 39.6833 -77.4000 180° South 255 293 7,500 -1,041 Descending Potomac TRACON
Fri 12:19:41 PM 39.6167 -77.4000 180° South 252 290 6,500 -1,050 Descending Potomac TRACON
Fri 12:20:41 PM 39.5500 -77.4167 191° South 225 259 5,400 -1,050 Descending Potomac TRACON
Fri 12:21:00 PM 39.5511 -77.3427 186° South  Level FlightAware
Fri 12:21:41 PM 39.4833 -77.4333 191° South 230 265 4,400  Level Potomac TRACON
Fri 12:22:41 PM 39.4167 -77.4167 169° South 219 252 4,000 -133 Descending Potomac TRACON
Fri 12:24:41 PM 39.3000 -77.4500 192° South 234 269 4,000  Level Potomac TRACON
Fri 12:25:42 PM 39.2333 -77.4500 180° South 242 278 4,000 -50 Level Potomac TRACON
Fri 12:26:42 PM 39.1667 -77.4500 180° South 242 278 3,900 -650 Descending Potomac TRACON
Fri 12:27:42 PM 39.1000 -77.4500 180° South 234 269 2,700 -1,105 Descending Potomac TRACON
Fri 12:28:36 PM 39.0500 -77.4667 195° South 180 207 1,800 -900 Descending Potomac TRACON
Fri 12:29:42 PM 39.0000 -77.4667 180° South 135 155 900 -818 Descending Potomac TRACON

Login

Don't have an account? Register now (free) for customized features, flight alerts, and more!